sensor_id;sensor_type;location;lat;lon;timestamp;pressure;altitude;pressure_sealevel;temperature;humidity
12963;BME280;6546;49.882;8.666;2023-04-05T00:02:08;100773.03;;;5.14;53.52
12963;BME280;6546;49.882;8.666;2023-04-05T00:04:38;100770.81;;;5.10;49.36
12963;BME280;6546;49.882;8.666;2023-04-05T00:07:16;100757.06;;;4.87;49.35
12963;BME280;6546;49.882;8.666;2023-04-05T00:09:46;100756.81;;;4.66;49.59
12963;BME280;6546;49.882;8.666;2023-04-05T00:12:17;100753.25;;;4.56;50.16
12963;BME280;6546;49.882;8.666;2023-04-05T00:14:44;100752.59;;;4.42;50.45
12963;BME280;6546;49.882;8.666;2023-04-05T00:17:11;100751.69;;;4.17;51.25
12963;BME280;6546;49.882;8.666;2023-04-05T00:19:37;100742.69;;;3.99;52.15
12963;BME280;6546;49.882;8.666;2023-04-05T00:22:04;100738.63;;;3.84;52.39
12963;BME280;6546;49.882;8.666;2023-04-05T00:24:35;100740.22;;;3.85;52.52
12963;BME280;6546;49.882;8.666;2023-04-05T00:27:03;100749.66;;;3.72;53.12
12963;BME280;6546;49.882;8.666;2023-04-05T00:29:31;100739.00;;;3.65;53.62
12963;BME280;6546;49.882;8.666;2023-04-05T00:31:58;100741.75;;;3.62;53.53
12963;BME280;6546;49.882;8.666;2023-04-05T00:34:25;100738.78;;;3.56;53.70
12963;BME280;6546;49.882;8.666;2023-04-05T00:36:51;100741.13;;;3.59;53.58
12963;BME280;6546;49.882;8.666;2023-04-05T00:39:18;100741.34;;;3.56;53.72
12963;BME280;6546;49.882;8.666;2023-04-05T00:41:45;100747.19;;;3.58;53.39
12963;BME280;6546;49.882;8.666;2023-04-05T00:44:11;100741.47;;;3.54;53.67
12963;BME280;6546;49.882;8.666;2023-04-05T00:46:39;100741.06;;;3.60;53.67
12963;BME280;6546;49.882;8.666;2023-04-05T00:49:06;100738.00;;;3.55;53.53
12963;BME280;6546;49.882;8.666;2023-04-05T00:51:33;100735.44;;;3.55;53.15
12963;BME280;6546;49.882;8.666;2023-04-05T00:54:01;100742.38;;;3.53;53.67
12963;BME280;6546;49.882;8.666;2023-04-05T00:56:29;100734.50;;;3.56;53.39
12963;BME280;6546;49.882;8.666;2023-04-05T00:58:56;100731.50;;;3.50;53.83
12963;BME280;6546;49.882;8.666;2023-04-05T01:01:24;100727.34;;;3.49;53.77
12963;BME280;6546;49.882;8.666;2023-04-05T01:03:57;100732.75;;;3.57;53.59
12963;BME280;6546;49.882;8.666;2023-04-05T01:09:32;100726.94;;;3.55;53.87
12963;BME280;6546;49.882;8.666;2023-04-05T01:12:04;100728.03;;;3.51;54.31
12963;BME280;6546;49.882;8.666;2023-04-05T01:14:31;100720.16;;;3.41;54.64
12963;BME280;6546;49.882;8.666;2023-04-05T01:16:58;100731.22;;;3.42;54.76
12963;BME280;6546;49.882;8.666;2023-04-05T01:19:28;100727.72;;;3.43;54.76
12963;BME280;6546;49.882;8.666;2023-04-05T01:25:08;100715.22;;;3.38;54.58
12963;BME280;6546;49.882;8.666;2023-04-05T01:27:49;100715.66;;;3.45;54.51
12963;BME280;6546;49.882;8.666;2023-04-05T01:30:23;100711.56;;;3.42;54.36
12963;BME280;6546;49.882;8.666;2023-04-05T01:33:00;100709.69;;;3.44;58.79
12963;BME280;6546;49.882;8.666;2023-04-05T01:35:34;100705.00;;;3.63;64.04
12963;BME280;6546;49.882;8.666;2023-04-05T01:38:04;100714.41;;;3.76;54.11
12963;BME280;6546;49.882;8.666;2023-04-05T01:40:34;100700.28;;;3.57;53.71
12963;BME280;6546;49.882;8.666;2023-04-05T01:43:11;100698.84;;;3.41;53.89
12963;BME280;6546;49.882;8.666;2023-04-05T01:45:39;100701.81;;;3.35;54.15
12963;BME280;6546;49.882;8.666;2023-04-05T01:48:06;100706.09;;;3.22;54.64
12963;BME280;6546;49.882;8.666;2023-04-05T01:50:33;100695.34;;;3.16;54.55
12963;BME280;6546;49.882;8.666;2023-04-05T01:52:59;100696.13;;;3.17;54.85
12963;BME280;6546;49.882;8.666;2023-04-05T01:55:26;100693.91;;;3.12;54.97
12963;BME280;6546;49.882;8.666;2023-04-05T01:57:54;100700.75;;;3.12;54.84
12963;BME280;6546;49.882;8.666;2023-04-05T02:00:21;100677.50;;;3.02;54.92
12963;BME280;6546;49.882;8.666;2023-04-05T02:02:49;100689.19;;;3.06;55.04
12963;BME280;6546;49.882;8.666;2023-04-05T02:05:16;100685.88;;;3.04;55.12
12963;BME280;6546;49.882;8.666;2023-04-05T02:07:42;100696.13;;;3.04;55.19
12963;BME280;6546;49.882;8.666;2023-04-05T02:10:09;100693.75;;;3.01;55.09
12963;BME280;6546;49.882;8.666;2023-04-05T02:12:35;100696.22;;;3.03;55.02
12963;BME280;6546;49.882;8.666;2023-04-05T02:15:04;100695.59;;;2.99;55.36
12963;BME280;6546;49.882;8.666;2023-04-05T02:17:30;100689.34;;;2.91;55.34
12963;BME280;6546;49.882;8.666;2023-04-05T02:20:06;100685.22;;;2.88;55.57
12963;BME280;6546;49.882;8.666;2023-04-05T02:22:33;100688.09;;;2.84;55.54
12963;BME280;6546;49.882;8.666;2023-04-05T02:25:01;100682.16;;;2.83;55.68
12963;BME280;6546;49.882;8.666;2023-04-05T02:27:28;100689.69;;;2.72;55.96
12963;BME280;6546;49.882;8.666;2023-04-05T02:29:54;100694.28;;;2.67;56.10
12963;BME280;6546;49.882;8.666;2023-04-05T02:32:21;100683.88;;;2.56;56.36
12963;BME280;6546;49.882;8.666;2023-04-05T02:34:48;100679.41;;;2.59;56.33
12963;BME280;6546;49.882;8.666;2023-04-05T02:37:18;100690.66;;;2.57;56.41
12963;BME280;6546;49.882;8.666;2023-04-05T02:39:44;100696.38;;;2.60;56.20
12963;BME280;6546;49.882;8.666;2023-04-05T02:42:11;100692.50;;;2.55;56.33
12963;BME280;6546;49.882;8.666;2023-04-05T02:44:37;100688.59;;;2.62;56.11
12963;BME280;6546;49.882;8.666;2023-04-05T02:47:04;100695.69;;;2.58;56.07
12963;BME280;6546;49.882;8.666;2023-04-05T02:49:30;100696.47;;;2.59;56.10
12963;BME280;6546;49.882;8.666;2023-04-05T02:51:57;100691.22;;;2.48;56.47
12963;BME280;6546;49.882;8.666;2023-04-05T02:54:25;100690.28;;;2.49;56.65
12963;BME280;6546;49.882;8.666;2023-04-05T02:56:51;100689.88;;;2.42;56.73
12963;BME280;6546;49.882;8.666;2023-04-05T02:59:19;100680.66;;;2.40;56.73
12963;BME280;6546;49.882;8.666;2023-04-05T03:01:45;100689.25;;;2.25;57.27
12963;BME280;6546;49.882;8.666;2023-04-05T03:04:12;100691.09;;;2.23;57.44
12963;BME280;6546;49.882;8.666;2023-04-05T03:06:38;100686.00;;;2.23;57.41
12963;BME280;6546;49.882;8.666;2023-04-05T03:09:13;100679.50;;;2.17;57.49
12963;BME280;6546;49.882;8.666;2023-04-05T03:11:41;100687.47;;;2.13;57.93
12963;BME280;6546;49.882;8.666;2023-04-05T03:14:07;100681.59;;;2.25;57.54
12963;BME280;6546;49.882;8.666;2023-04-05T03:16:36;100663.47;;;2.15;57.28
12963;BME280;6546;49.882;8.666;2023-04-05T03:19:03;100673.94;;;2.25;57.54
12963;BME280;6546;49.882;8.666;2023-04-05T03:21:30;100666.34;;;2.23;57.34
12963;BME280;6546;49.882;8.666;2023-04-05T03:23:58;100672.78;;;2.16;57.53
12963;BME280;6546;49.882;8.666;2023-04-05T03:26:25;100667.50;;;2.05;57.82
12963;BME280;6546;49.882;8.666;2023-04-05T03:28:53;100675.25;;;2.03;58.07
12963;BME280;6546;49.882;8.666;2023-04-05T03:31:20;100665.03;;;2.03;57.79
12963;BME280;6546;49.882;8.666;2023-04-05T03:33:46;100665.66;;;2.07;57.55
12963;BME280;6546;49.882;8.666;2023-04-05T03:36:13;100669.13;;;2.06;57.68
12963;BME280;6546;49.882;8.666;2023-04-05T03:38:43;100666.66;;;2.04;57.41
12963;BME280;6546;49.882;8.666;2023-04-05T03:41:09;100653.25;;;2.01;57.54
12963;BME280;6546;49.882;8.666;2023-04-05T03:43:36;100656.63;;;2.01;57.59
12963;BME280;6546;49.882;8.666;2023-04-05T03:46:04;100654.63;;;2.06;57.23
12963;BME280;6546;49.882;8.666;2023-04-05T03:48:31;100659.13;;;2.03;57.26
12963;BME280;6546;49.882;8.666;2023-04-05T03:50:57;100664.09;;;2.04;57.41
12963;BME280;6546;49.882;8.666;2023-04-05T03:53:24;100664.41;;;2.00;58.02
12963;BME280;6546;49.882;8.666;2023-04-05T03:55:50;100662.13;;;1.95;57.81
12963;BME280;6546;49.882;8.666;2023-04-05T03:58:19;100662.66;;;2.00;57.81
12963;BME280;6546;49.882;8.666;2023-04-05T04:00:46;100652.72;;;1.96;57.97
12963;BME280;6546;49.882;8.666;2023-04-05T04:03:14;100651.00;;;1.96;58.11
12963;BME280;6546;49.882;8.666;2023-04-05T04:05:40;100657.53;;;2.00;57.96
12963;BME280;6546;49.882;8.666;2023-04-05T04:08:07;100655.81;;;2.01;58.04
12963;BME280;6546;49.882;8.666;2023-04-05T04:10:34;100637.78;;;1.90;58.23
12963;BME280;6546;49.882;8.666;2023-04-05T04:13:00;100648.63;;;1.93;58.38
12963;BME280;6546;49.882;8.666;2023-04-05T04:15:27;100653.47;;;1.84;58.83
12963;BME280;6546;49.882;8.666;2023-04-05T04:17:54;100649.47;;;1.94;58.43
12963;BME280;6546;49.882;8.666;2023-04-05T04:20:22;100648.81;;;1.90;58.58
12963;BME280;6546;49.882;8.666;2023-04-05T04:22:48;100648.81;;;1.90;58.72
12963;BME280;6546;49.882;8.666;2023-04-05T04:25:18;100646.91;;;1.80;58.83
12963;BME280;6546;49.882;8.666;2023-04-05T04:27:45;100651.00;;;1.68;59.60
12963;BME280;6546;49.882;8.666;2023-04-05T04:30:13;100650.13;;;1.55;60.04
12963;BME280;6546;49.882;8.666;2023-04-05T04:32:41;100654.28;;;1.56;60.38
12963;BME280;6546;49.882;8.666;2023-04-05T04:35:17;100651.00;;;1.54;60.15
12963;BME280;6546;49.882;8.666;2023-04-05T04:37:46;100651.84;;;1.54;60.38
12963;BME280;6546;49.882;8.666;2023-04-05T04:40:17;100651.94;;;1.67;59.81
12963;BME280;6546;49.882;8.666;2023-04-05T04:42:47;100645.09;;;1.53;60.19
12963;BME280;6546;49.882;8.666;2023-04-05T04:45:15;100642.91;;;1.47;60.71
12963;BME280;6546;49.882;8.666;2023-04-05T04:47:43;100648.91;;;1.46;60.57
12963;BME280;6546;49.882;8.666;2023-04-05T04:50:10;100650.44;;;1.49;60.62
12963;BME280;6546;49.882;8.666;2023-04-05T04:52:37;100651.56;;;1.45;60.89
12963;BME280;6546;49.882;8.666;2023-04-05T04:55:07;100655.22;;;1.55;60.45
12963;BME280;6546;49.882;8.666;2023-04-05T04:57:34;100665.75;;;1.49;60.74
12963;BME280;6546;49.882;8.666;2023-04-05T05:00:01;100662.88;;;1.55;60.16
12963;BME280;6546;49.882;8.666;2023-04-05T05:02:31;100663.19;;;1.49;60.79
12963;BME280;6546;49.882;8.666;2023-04-05T05:04:58;100662.31;;;1.50;60.40
12963;BME280;6546;49.882;8.666;2023-04-05T05:07:24;100667.97;;;1.55;60.00
12963;BME280;6546;49.882;8.666;2023-04-05T05:09:51;100661.00;;;1.43;60.85
12963;BME280;6546;49.882;8.666;2023-04-05T05:12:20;100662.03;;;1.54;60.55
12963;BME280;6546;49.882;8.666;2023-04-05T05:14:47;100651.91;;;1.53;60.02
12963;BME280;6546;49.882;8.666;2023-04-05T05:17:13;100671.69;;;1.64;60.22
12963;BME280;6546;49.882;8.666;2023-04-05T05:19:40;100669.22;;;1.62;60.34
12963;BME280;6546;49.882;8.666;2023-04-05T05:22:06;100668.16;;;1.66;60.27
12963;BME280;6546;49.882;8.666;2023-04-05T05:24:33;100676.06;;;1.76;59.97
12963;BME280;6546;49.882;8.666;2023-04-05T05:26:59;100673.53;;;1.76;60.31
12963;BME280;6546;49.882;8.666;2023-04-05T05:29:27;100669.44;;;1.73;60.38
12963;BME280;6546;49.882;8.666;2023-04-05T05:31:54;100662.69;;;1.86;59.97
12963;BME280;6546;49.882;8.666;2023-04-05T05:34:21;100673.22;;;1.94;59.66
12963;BME280;6546;49.882;8.666;2023-04-05T05:36:48;100667.59;;;1.89;59.72
12963;BME280;6546;49.882;8.666;2023-04-05T05:39:15;100670.50;;;1.97;59.51
12963;BME280;6546;49.882;8.666;2023-04-05T05:41:43;100671.38;;;2.10;59.41
12963;BME280;6546;49.882;8.666;2023-04-05T05:44:09;100665.50;;;2.10;59.03
12963;BME280;6546;49.882;8.666;2023-04-05T05:46:37;100663.03;;;2.08;59.21
12963;BME280;6546;49.882;8.666;2023-04-05T05:49:04;100667.09;;;2.11;59.51
12963;BME280;6546;49.882;8.666;2023-04-05T05:51:30;100656.97;;;2.24;58.77
12963;BME280;6546;49.882;8.666;2023-04-05T05:53:57;100664.44;;;2.27;58.55
12963;BME280;6546;49.882;8.666;2023-04-05T05:56:24;100663.00;;;2.23;58.84
12963;BME280;6546;49.882;8.666;2023-04-05T05:58:51;100666.19;;;2.26;58.86
12963;BME280;6546;49.882;8.666;2023-04-05T06:01:18;100675.66;;;2.24;58.83
12963;BME280;6546;49.882;8.666;2023-04-05T06:03:48;100675.59;;;2.26;59.12
12963;BME280;6546;49.882;8.666;2023-04-05T06:06:15;100680.44;;;2.43;59.31
12963;BME280;6546;49.882;8.666;2023-04-05T06:08:42;100685.97;;;2.63;58.86
12963;BME280;6546;49.882;8.666;2023-04-05T06:11:16;100679.50;;;2.85;58.15
12963;BME280;6546;49.882;8.666;2023-04-05T06:13:42;100681.56;;;2.92;58.00
12963;BME280;6546;49.882;8.666;2023-04-05T06:16:09;100679.53;;;2.97;57.63
12963;BME280;6546;49.882;8.666;2023-04-05T06:18:36;100680.78;;;3.04;57.58
12963;BME280;6546;49.882;8.666;2023-04-05T06:21:04;100686.53;;;3.21;56.51
12963;BME280;6546;49.882;8.666;2023-04-05T06:23:30;100681.00;;;3.27;57.29
12963;BME280;6546;49.882;8.666;2023-04-05T06:25:58;100689.09;;;3.33;57.71
12963;BME280;6546;49.882;8.666;2023-04-05T06:28:24;100678.16;;;3.44;56.46
12963;BME280;6546;49.882;8.666;2023-04-05T06:30:52;100682.16;;;3.60;55.70
12963;BME280;6546;49.882;8.666;2023-04-05T06:33:18;100678.97;;;3.82;55.06
12963;BME280;6546;49.882;8.666;2023-04-05T06:35:47;100673.59;;;4.10;54.28
12963;BME280;6546;49.882;8.666;2023-04-05T06:38:15;100676.28;;;4.69;53.90
12963;BME280;6546;49.882;8.666;2023-04-05T06:40:42;100676.59;;;5.23;53.17
12963;BME280;6546;49.882;8.666;2023-04-05T06:43:08;100678.69;;;5.97;50.23
12963;BME280;6546;49.882;8.666;2023-04-05T06:45:36;100673.50;;;6.42;47.10
12963;BME280;6546;49.882;8.666;2023-04-05T06:48:03;100668.44;;;6.83;46.28
12963;BME280;6546;49.882;8.666;2023-04-05T06:50:29;100669.09;;;6.96;45.33
12963;BME280;6546;49.882;8.666;2023-04-05T06:52:56;100667.16;;;7.09;45.03
12963;BME280;6546;49.882;8.666;2023-04-05T06:55:24;100676.84;;;7.17;44.23
12963;BME280;6546;49.882;8.666;2023-04-05T06:57:51;100670.19;;;6.51;44.42
12963;BME280;6546;49.882;8.666;2023-04-05T07:00:18;100664.16;;;6.29;45.18
12963;BME280;6546;49.882;8.666;2023-04-05T07:02:44;100680.53;;;6.17;46.49
12963;BME280;6546;49.882;8.666;2023-04-05T07:05:11;100670.97;;;5.86;46.32
12963;BME280;6546;49.882;8.666;2023-04-05T07:07:38;100669.66;;;5.69;45.64
12963;BME280;6546;49.882;8.666;2023-04-05T07:10:06;100675.50;;;5.49;46.34
12963;BME280;6546;49.882;8.666;2023-04-05T07:12:34;100673.72;;;5.39;46.15
12963;BME280;6546;49.882;8.666;2023-04-05T07:15:01;100673.72;;;5.39;46.18
12963;BME280;6546;49.882;8.666;2023-04-05T07:17:27;100674.88;;;5.35;45.56
12963;BME280;6546;49.882;8.666;2023-04-05T07:19:54;100673.66;;;5.16;45.66
12963;BME280;6546;49.882;8.666;2023-04-05T07:22:20;100680.41;;;5.06;45.69
12963;BME280;6546;49.882;8.666;2023-04-05T07:24:47;100672.19;;;5.01;45.59
12963;BME280;6546;49.882;8.666;2023-04-05T07:27:14;100674.06;;;4.99;45.77
12963;BME280;6546;49.882;8.666;2023-04-05T07:29:42;100672.44;;;4.98;45.43
12963;BME280;6546;49.882;8.666;2023-04-05T07:32:08;100669.69;;;5.12;45.54
12963;BME280;6546;49.882;8.666;2023-04-05T07:34:37;100663.59;;;5.02;46.03
12963;BME280;6546;49.882;8.666;2023-04-05T07:37:05;100663.38;;;5.05;46.21
12963;BME280;6546;49.882;8.666;2023-04-05T07:39:33;100666.53;;;5.09;46.32
12963;BME280;6546;49.882;8.666;2023-04-05T07:42:00;100664.78;;;5.09;45.93
12963;BME280;6546;49.882;8.666;2023-04-05T07:44:26;100667.75;;;5.38;45.37
12963;BME280;6546;49.882;8.666;2023-04-05T07:46:54;100667.44;;;5.43;44.50
12963;BME280;6546;49.882;8.666;2023-04-05T07:49:24;100668.69;;;5.37;44.54
12963;BME280;6546;49.882;8.666;2023-04-05T07:51:53;100665.53;;;5.22;44.48
12963;BME280;6546;49.882;8.666;2023-04-05T07:54:20;100675.47;;;5.38;44.49
12963;BME280;6546;49.882;8.666;2023-04-05T07:56:47;100670.47;;;5.48;43.76
12963;BME280;6546;49.882;8.666;2023-04-05T07:59:14;100667.66;;;5.51;43.77
12963;BME280;6546;49.882;8.666;2023-04-05T08:01:43;100660.31;;;5.57;44.17
12963;BME280;6546;49.882;8.666;2023-04-05T08:04:17;100662.06;;;5.57;45.01
12963;BME280;6546;49.882;8.666;2023-04-05T08:06:44;100657.19;;;5.65;43.40
12963;BME280;6546;49.882;8.666;2023-04-05T08:09:11;100652.38;;;5.49;43.97
12963;BME280;6546;49.882;8.666;2023-04-05T08:11:38;100660.78;;;5.62;43.79
12963;BME280;6546;49.882;8.666;2023-04-05T08:14:04;100672.00;;;5.61;43.53
12963;BME280;6546;49.882;8.666;2023-04-05T08:16:31;100666.50;;;5.66;43.16
12963;BME280;6546;49.882;8.666;2023-04-05T08:18:58;100665.34;;;5.70;43.45
12963;BME280;6546;49.882;8.666;2023-04-05T08:21:29;100659.38;;;5.69;43.03
12963;BME280;6546;49.882;8.666;2023-04-05T08:24:00;100664.22;;;5.96;41.87
12963;BME280;6546;49.882;8.666;2023-04-05T08:26:27;100660.22;;;5.92;42.06
12963;BME280;6546;49.882;8.666;2023-04-05T08:28:54;100663.97;;;5.88;42.41
12963;BME280;6546;49.882;8.666;2023-04-05T08:31:21;100666.03;;;5.61;42.29
12963;BME280;6546;49.882;8.666;2023-04-05T08:33:48;100657.63;;;5.70;43.57
12963;BME280;6546;49.882;8.666;2023-04-05T08:36:14;100654.84;;;5.84;43.20
12963;BME280;6546;49.882;8.666;2023-04-05T08:38:42;100654.94;;;5.82;42.48
12963;BME280;6546;49.882;8.666;2023-04-05T08:41:14;100647.84;;;5.86;42.96
12963;BME280;6546;49.882;8.666;2023-04-05T08:43:54;100655.19;;;6.02;42.02
12963;BME280;6546;49.882;8.666;2023-04-05T08:46:22;100646.56;;;6.03;41.89
12963;BME280;6546;49.882;8.666;2023-04-05T08:48:49;100645.16;;;5.99;41.82
12963;BME280;6546;49.882;8.666;2023-04-05T08:51:18;100650.19;;;6.00;42.13
12963;BME280;6546;49.882;8.666;2023-04-05T08:53:46;100651.59;;;5.93;41.37
12963;BME280;6546;49.882;8.666;2023-04-05T08:56:15;100635.94;;;5.96;41.13
12963;BME280;6546;49.882;8.666;2023-04-05T08:58:50;100648.06;;;6.16;41.15
12963;BME280;6546;49.882;8.666;2023-04-05T09:01:19;100648.06;;;6.05;40.13
12963;BME280;6546;49.882;8.666;2023-04-05T09:03:48;100647.16;;;6.06;40.73
12963;BME280;6546;49.882;8.666;2023-04-05T09:06:18;100640.00;;;6.10;40.78
12963;BME280;6546;49.882;8.666;2023-04-05T09:08:47;100638.59;;;6.17;40.71
12963;BME280;6546;49.882;8.666;2023-04-05T09:11:14;100646.13;;;6.41;40.85
12963;BME280;6546;49.882;8.666;2023-04-05T09:13:44;100643.59;;;6.29;39.08
12963;BME280;6546;49.882;8.666;2023-04-05T09:16:13;100634.91;;;6.42;39.62
12963;BME280;6546;49.882;8.666;2023-04-05T09:18:40;100640.88;;;6.42;39.13
12963;BME280;6546;49.882;8.666;2023-04-05T09:21:10;100646.34;;;6.49;39.62
12963;BME280;6546;49.882;8.666;2023-04-05T09:23:36;100646.13;;;6.41;38.88
12963;BME280;6546;49.882;8.666;2023-04-05T09:26:17;100650.13;;;6.33;38.33
12963;BME280;6546;49.882;8.666;2023-04-05T09:28:44;100638.00;;;6.24;37.64
12963;BME280;6546;49.882;8.666;2023-04-05T09:31:29;100635.41;;;6.36;38.31
12963;BME280;6546;49.882;8.666;2023-04-05T09:33:57;100633.94;;;6.54;38.87
12963;BME280;6546;49.882;8.666;2023-04-05T09:36:25;100621.03;;;6.65;37.71
12963;BME280;6546;49.882;8.666;2023-04-05T09:38:52;100624.19;;;6.68;37.78
12963;BME280;6546;49.882;8.666;2023-04-05T09:41:23;100618.72;;;6.62;36.09
12963;BME280;6546;49.882;8.666;2023-04-05T09:43:51;100610.59;;;6.66;37.18
12963;BME280;6546;49.882;8.666;2023-04-05T09:46:29;100618.47;;;6.65;36.95
12963;BME280;6546;49.882;8.666;2023-04-05T09:48:56;100625.22;;;6.66;37.11
12963;BME280;6546;49.882;8.666;2023-04-05T09:51:31;100616.91;;;6.73;36.03
12963;BME280;6546;49.882;8.666;2023-04-05T09:53:59;100619.69;;;6.81;36.41
12963;BME280;6546;49.882;8.666;2023-04-05T09:56:30;100630.91;;;7.01;36.44
12963;BME280;6546;49.882;8.666;2023-04-05T09:59:00;100624.97;;;7.01;35.90
12963;BME280;6546;49.882;8.666;2023-04-05T10:01:32;100634.06;;;6.84;35.67
12963;BME280;6546;49.882;8.666;2023-04-05T10:03:59;100629.09;;;6.71;36.36
12963;BME280;6546;49.882;8.666;2023-04-05T10:06:36;100627.19;;;6.73;36.25
12963;BME280;6546;49.882;8.666;2023-04-05T10:09:08;100632.41;;;6.83;36.37
12963;BME280;6546;49.882;8.666;2023-04-05T10:11:37;100627.13;;;7.05;35.71
12963;BME280;6546;49.882;8.666;2023-04-05T10:14:06;100622.81;;;7.06;35.05
12963;BME280;6546;49.882;8.666;2023-04-05T10:16:36;100618.44;;;6.97;35.55
12963;BME280;6546;49.882;8.666;2023-04-05T10:19:04;100617.84;;;6.93;35.71
12963;BME280;6546;49.882;8.666;2023-04-05T10:21:40;100610.50;;;6.88;35.51
12963;BME280;6546;49.882;8.666;2023-04-05T10:24:17;100595.16;;;7.08;35.57
12963;BME280;6546;49.882;8.666;2023-04-05T10:26:58;100606.72;;;7.34;36.75
12963;BME280;6546;49.882;8.666;2023-04-05T10:29:35;100607.19;;;7.49;35.59
12963;BME280;6546;49.882;8.666;2023-04-05T10:32:08;100613.72;;;7.53;34.64
12963;BME280;6546;49.882;8.666;2023-04-05T10:34:41;100598.88;;;7.35;33.60
12963;BME280;6546;49.882;8.666;2023-04-05T10:37:12;100595.34;;;7.36;34.22
12963;BME280;6546;49.882;8.666;2023-04-05T10:39:45;100591.28;;;7.44;34.59
12963;BME280;6546;49.882;8.666;2023-04-05T10:42:18;100591.09;;;7.66;34.34
12963;BME280;6546;49.882;8.666;2023-04-05T10:44:57;100579.59;;;7.70;33.94
12963;BME280;6546;49.882;8.666;2023-04-05T10:47:29;100579.63;;;7.79;34.46
12963;BME280;6546;49.882;8.666;2023-04-05T10:49:59;100579.91;;;7.86;34.08
12963;BME280;6546;49.882;8.666;2023-04-05T10:52:28;100584.97;;;7.87;34.37
12963;BME280;6546;49.882;8.666;2023-04-05T10:54:58;100581.13;;;7.82;34.12
12963;BME280;6546;49.882;8.666;2023-04-05T10:57:29;100569.97;;;7.62;33.33
12963;BME280;6546;49.882;8.666;2023-04-05T11:00:00;100565.31;;;7.56;33.81
12963;BME280;6546;49.882;8.666;2023-04-05T11:02:28;100568.09;;;7.74;33.80
12963;BME280;6546;49.882;8.666;2023-04-05T11:04:55;100568.38;;;7.80;33.89
12963;BME280;6546;49.882;8.666;2023-04-05T11:07:22;100570.66;;;7.74;33.53
12963;BME280;6546;49.882;8.666;2023-04-05T11:09:59;100570.75;;;7.63;32.55
12963;BME280;6546;49.882;8.666;2023-04-05T11:15:36;100562.34;;;7.61;32.37
12963;BME280;6546;49.882;8.666;2023-04-05T11:18:07;100562.63;;;7.58;32.51
12963;BME280;6546;49.882;8.666;2023-04-05T11:21:06;100562.63;;;7.58;32.08
12963;BME280;6546;49.882;8.666;2023-04-05T11:24:03;100558.03;;;7.61;31.85
12963;BME280;6546;49.882;8.666;2023-04-05T11:26:32;100550.97;;;7.63;32.21
12963;BME280;6546;49.882;8.666;2023-04-05T11:29:00;100559.25;;;7.67;31.73
12963;BME280;6546;49.882;8.666;2023-04-05T11:31:28;100559.94;;;7.69;30.85
12963;BME280;6546;49.882;8.666;2023-04-05T11:33:56;100551.94;;;7.72;31.40
12963;BME280;6546;49.882;8.666;2023-04-05T11:36:36;100551.72;;;7.84;31.89
12963;BME280;6546;49.882;8.666;2023-04-05T11:39:27;100545.88;;;7.92;31.78
12963;BME280;6546;49.882;8.666;2023-04-05T11:42:04;100545.38;;;8.17;31.48
12963;BME280;6546;49.882;8.666;2023-04-05T11:44:40;100541.56;;;8.21;31.27
12963;BME280;6546;49.882;8.666;2023-04-05T11:47:08;100538.03;;;8.22;31.40
12963;BME280;6546;49.882;8.666;2023-04-05T11:49:35;100530.97;;;8.24;31.36
12963;BME280;6546;49.882;8.666;2023-04-05T11:52:09;100532.09;;;8.31;33.98
12963;BME280;6546;49.882;8.666;2023-04-05T11:54:36;100527.91;;;8.40;32.07
12963;BME280;6546;49.882;8.666;2023-04-05T11:57:04;100529.94;;;8.46;31.36
12963;BME280;6546;49.882;8.666;2023-04-05T11:59:32;100523.13;;;8.26;31.58
12963;BME280;6546;49.882;8.666;2023-04-05T12:02:04;100533.56;;;8.24;32.21
12963;BME280;6546;49.882;8.666;2023-04-05T12:04:34;100527.47;;;8.35;31.31
12963;BME280;6546;49.882;8.666;2023-04-05T12:07:08;100523.94;;;8.17;31.00
12963;BME280;6546;49.882;8.666;2023-04-05T12:09:35;100515.50;;;8.05;31.77
12963;BME280;6546;49.882;8.666;2023-04-05T12:12:02;100521.47;;;8.06;31.51
12963;BME280;6546;49.882;8.666;2023-04-05T12:14:28;100509.94;;;8.00;30.88
12963;BME280;6546;49.882;8.666;2023-04-05T12:16:57;100515.22;;;8.27;30.66
12963;BME280;6546;49.882;8.666;2023-04-05T12:19:28;100504.91;;;8.27;30.13
12963;BME280;6546;49.882;8.666;2023-04-05T12:21:56;100508.22;;;8.29;30.78
12963;BME280;6546;49.882;8.666;2023-04-05T12:24:23;100503.06;;;8.29;32.32
12963;BME280;6546;49.882;8.666;2023-04-05T12:26:50;100497.06;;;8.29;32.13
12963;BME280;6546;49.882;8.666;2023-04-05T12:29:16;100500.75;;;8.36;30.82
12963;BME280;6546;49.882;8.666;2023-04-05T12:31:45;100498.44;;;8.42;30.48
12963;BME280;6546;49.882;8.666;2023-04-05T12:34:13;100487.66;;;8.57;31.18
12963;BME280;6546;49.882;8.666;2023-04-05T12:36:43;100490.25;;;8.57;31.43
12963;BME280;6546;49.882;8.666;2023-04-05T12:39:11;100492.69;;;8.58;31.42
12963;BME280;6546;49.882;8.666;2023-04-05T12:41:38;100488.94;;;8.43;31.05
12963;BME280;6546;49.882;8.666;2023-04-05T12:44:05;100488.78;;;8.44;30.88
12963;BME280;6546;49.882;8.666;2023-04-05T12:46:43;100484.81;;;8.50;30.48
12963;BME280;6546;49.882;8.666;2023-04-05T12:49:11;100478.16;;;8.48;30.12
12963;BME280;6546;49.882;8.666;2023-04-05T12:51:40;100474.72;;;8.66;29.75
12963;BME280;6546;49.882;8.666;2023-04-05T12:54:12;100479.22;;;8.64;29.52
12963;BME280;6546;49.882;8.666;2023-04-05T12:56:39;100462.81;;;8.65;29.41
12963;BME280;6546;49.882;8.666;2023-04-05T12:59:06;100464.69;;;8.63;29.80
12963;BME280;6546;49.882;8.666;2023-04-05T13:01:33;100461.84;;;8.57;30.58
12963;BME280;6546;49.882;8.666;2023-04-05T13:04:00;100464.66;;;8.73;29.35
12963;BME280;6546;49.882;8.666;2023-04-05T13:06:29;100467.13;;;8.74;29.24
12963;BME280;6546;49.882;8.666;2023-04-05T13:08:56;100457.91;;;8.62;29.58
12963;BME280;6546;49.882;8.666;2023-04-05T13:11:24;100451.38;;;8.68;30.14
12963;BME280;6546;49.882;8.666;2023-04-05T13:13:51;100451.91;;;8.71;30.48
12963;BME280;6546;49.882;8.666;2023-04-05T13:16:17;100447.69;;;8.70;29.76
12963;BME280;6546;49.882;8.666;2023-04-05T13:18:44;100448.09;;;8.75;30.59
12963;BME280;6546;49.882;8.666;2023-04-05T13:21:10;100444.53;;;8.76;30.85
12963;BME280;6546;49.882;8.666;2023-04-05T13:23:38;100433.09;;;8.88;28.67
12963;BME280;6546;49.882;8.666;2023-04-05T13:26:05;100438.50;;;8.95;27.72
12963;BME280;6546;49.882;8.666;2023-04-05T13:28:34;100437.75;;;8.85;28.02